createdAt,value
2022-12-04T00:03:13.672Z,6.85
2022-12-04T00:06:35.997Z,6.05
2022-12-04T00:09:58.270Z,5.70
2022-12-04T00:13:20.491Z,5.50
2022-12-04T00:16:42.839Z,5.40
2022-12-04T00:20:05.897Z,5.32
2022-12-04T00:23:28.082Z,6.07
2022-12-04T00:26:50.512Z,5.25
2022-12-04T00:30:13.268Z,5.85
2022-12-04T00:33:36.143Z,5.90
2022-12-04T00:36:58.342Z,5.40
2022-12-04T00:40:20.627Z,4.68
2022-12-04T00:43:43.307Z,5.32
2022-12-04T00:47:05.709Z,4.80
2022-12-04T00:50:28.009Z,5.43
2022-12-04T00:53:51.792Z,5.20
2022-12-04T00:57:14.040Z,5.38
2022-12-04T01:00:37.572Z,5.30
2022-12-04T01:03:59.881Z,4.70
2022-12-04T01:07:22.129Z,4.88
2022-12-04T01:10:44.324Z,4.50
2022-12-04T01:14:06.570Z,5.35
2022-12-04T01:17:28.720Z,5.25
2022-12-04T01:20:52.335Z,4.60
2022-12-04T01:24:14.637Z,4.70
2022-12-04T01:27:36.773Z,4.65
2022-12-04T01:31:05.903Z,4.55
2022-12-04T01:34:28.162Z,4.85
2022-12-04T01:37:50.367Z,4.47
2022-12-04T01:41:14.347Z,4.05
2022-12-04T01:44:56.461Z,4.07
2022-12-04T01:48:27.995Z,4.15
2022-12-04T01:51:53.832Z,4.13
2022-12-04T01:55:16.657Z,4.25
2022-12-04T01:58:43.980Z,3.80
2022-12-04T02:02:10.978Z,4.00
2022-12-04T02:05:33.451Z,4.13
2022-12-04T02:08:55.755Z,4.32
2022-12-04T02:12:32.687Z,3.60
2022-12-04T02:16:19.604Z,4.40
2022-12-04T02:20:02.244Z,3.72
2022-12-04T02:23:50.718Z,3.67
2022-12-04T02:27:31.425Z,3.35
2022-12-04T02:30:57.913Z,4.00
2022-12-04T02:34:32.170Z,3.45
2022-12-04T02:38:19.015Z,3.45
2022-12-04T02:41:48.008Z,3.42
2022-12-04T02:45:14.535Z,3.47
2022-12-04T02:48:41.320Z,3.55
2022-12-04T02:52:06.859Z,3.38
2022-12-04T02:55:42.242Z,3.35
2022-12-04T02:59:09.848Z,3.17
2022-12-04T03:02:41.376Z,3.30
2022-12-04T03:06:10.888Z,3.53
2022-12-04T03:09:54.515Z,3.30
2022-12-04T03:13:22.842Z,3.50
2022-12-04T03:16:47.360Z,3.28
2022-12-04T03:20:13.079Z,2.75
2022-12-04T03:23:58.372Z,3.33
2022-12-04T03:27:20.553Z,3.00
2022-12-04T03:30:50.367Z,2.70
2022-12-04T03:34:18.959Z,2.90
2022-12-04T03:38:02.183Z,2.90
2022-12-04T03:41:49.727Z,3.22
2022-12-04T03:45:15.133Z,3.03
2022-12-04T03:49:06.568Z,2.92
2022-12-04T03:53:13.028Z,3.00
2022-12-04T04:00:10.627Z,2.75
2022-12-04T04:03:39.032Z,3.15
2022-12-04T04:07:30.315Z,2.95
2022-12-04T04:11:04.277Z,3.08
2022-12-04T04:14:55.932Z,3.17
2022-12-04T04:22:14.305Z,3.28
2022-12-04T04:25:40.067Z,2.92
2022-12-04T04:29:02.499Z,2.88
2022-12-04T04:32:42.837Z,3.20
2022-12-04T04:36:27.109Z,2.90
2022-12-04T04:39:57.272Z,3.25
2022-12-04T04:43:34.628Z,2.90
2022-12-04T04:47:06.060Z,3.22
2022-12-04T04:50:30.047Z,2.58
2022-12-04T04:53:56.536Z,3.08
2022-12-04T04:57:36.749Z,3.05
2022-12-04T05:01:11.510Z,2.80
2022-12-04T05:04:33.789Z,3.15
2022-12-04T05:07:56.026Z,3.00
2022-12-04T05:11:18.417Z,2.80
2022-12-04T05:14:40.543Z,3.20
2022-12-04T05:18:02.897Z,2.97
2022-12-04T05:21:25.112Z,2.67
2022-12-04T05:24:47.400Z,2.63
2022-12-04T05:28:09.724Z,2.80
2022-12-04T05:31:32.167Z,2.50
2022-12-04T05:34:56.212Z,2.85
2022-12-04T05:38:18.403Z,2.92
2022-12-04T05:41:40.760Z,2.88
2022-12-04T05:45:03.557Z,2.63
2022-12-04T05:48:25.759Z,2.40
2022-12-04T05:51:49.481Z,2.58
2022-12-04T05:55:11.664Z,2.97
2022-12-04T05:58:37.783Z,2.70
2022-12-04T06:02:00.107Z,2.92
2022-12-04T06:05:22.369Z,2.92
2022-12-04T06:08:44.809Z,3.13
2022-12-04T06:12:07.115Z,2.90
2022-12-04T06:15:29.268Z,2.60
2022-12-04T06:18:57.950Z,2.58
2022-12-04T06:22:20.250Z,2.88
2022-12-04T06:25:42.420Z,2.72
2022-12-04T06:29:04.616Z,2.42
2022-12-04T06:32:26.880Z,2.67
2022-12-04T06:36:07.887Z,2.85
2022-12-04T06:39:30.024Z,2.72
2022-12-04T06:42:52.199Z,2.50
2022-12-04T06:46:26.036Z,2.80
2022-12-04T06:49:51.549Z,3.20
2022-12-04T06:53:13.774Z,2.80
2022-12-04T06:56:36.078Z,2.65
2022-12-04T06:59:58.363Z,2.63
2022-12-04T07:03:21.649Z,2.25
2022-12-04T07:06:43.798Z,2.50
2022-12-04T07:10:06.729Z,2.28
2022-12-04T07:13:28.979Z,2.45
2022-12-04T07:16:51.422Z,2.33
2022-12-04T07:20:13.977Z,2.55
2022-12-04T07:23:36.983Z,2.55
2022-12-04T07:26:59.161Z,2.53
2022-12-04T07:30:21.818Z,2.80
2022-12-04T07:33:44.892Z,2.33
2022-12-04T07:37:07.089Z,2.25
2022-12-04T07:40:29.300Z,2.80
2022-12-04T07:43:51.592Z,2.42
2022-12-04T07:47:13.925Z,2.70
2022-12-04T07:50:36.124Z,2.95
2022-12-04T07:54:02.625Z,2.70
2022-12-04T07:57:25.665Z,2.83
2022-12-04T08:00:47.892Z,2.55
2022-12-04T08:04:11.279Z,2.40
2022-12-04T08:07:33.649Z,2.88
2022-12-04T08:10:56.444Z,2.40
2022-12-04T08:14:18.703Z,2.28
2022-12-04T08:17:40.995Z,2.90
2022-12-04T08:21:11.726Z,2.70
2022-12-04T08:24:33.912Z,3.15
2022-12-04T08:27:56.291Z,2.72
2022-12-04T08:31:21.897Z,2.90
2022-12-04T08:34:44.308Z,2.97
2022-12-04T08:38:06.492Z,2.85
2022-12-04T08:41:28.883Z,3.05
2022-12-04T08:44:51.177Z,3.10
2022-12-04T08:48:13.403Z,3.10
2022-12-04T08:51:36.000Z,2.92
2022-12-04T08:54:58.267Z,3.88
2022-12-04T08:58:20.948Z,3.60
2022-12-04T09:01:28.415Z,2.97
2022-12-04T09:04:50.753Z,3.20
2022-12-04T09:08:17.824Z,3.40
2022-12-04T09:11:40.135Z,3.10
2022-12-04T09:15:02.576Z,3.17
2022-12-04T09:18:24.922Z,3.15
2022-12-04T09:21:47.416Z,2.80
2022-12-04T09:25:11.900Z,3.25
2022-12-04T09:28:34.110Z,3.53
2022-12-04T09:31:56.299Z,3.38
2022-12-04T09:35:18.794Z,3.30
2022-12-04T09:38:41.237Z,3.20
2022-12-04T09:42:20.602Z,3.13
2022-12-04T09:45:47.688Z,3.25
2022-12-04T09:49:37.322Z,3.20
2022-12-04T09:53:06.713Z,3.03
2022-12-04T09:56:31.129Z,2.90
2022-12-04T09:59:54.580Z,4.23
2022-12-04T10:03:20.631Z,3.45
2022-12-04T10:07:07.469Z,2.97
2022-12-04T10:10:49.970Z,3.33
2022-12-04T10:14:15.078Z,3.78
2022-12-04T10:17:55.836Z,3.40
2022-12-04T10:21:45.472Z,3.35
2022-12-04T10:25:14.744Z,3.97
2022-12-04T10:28:43.598Z,3.47
2022-12-04T10:32:24.419Z,3.90
2022-12-04T10:35:52.398Z,4.22
2022-12-04T10:39:34.542Z,3.55
2022-12-04T10:43:20.647Z,3.17
2022-12-04T10:46:45.970Z,3.28
2022-12-04T10:50:22.882Z,3.03
2022-12-04T10:53:46.532Z,4.80
2022-12-04T10:57:11.283Z,8.13
2022-12-04T11:00:35.951Z,8.88
2022-12-04T11:04:03.260Z,9.55
2022-12-04T11:07:29.454Z,10.55
2022-12-04T11:11:01.979Z,9.05
2022-12-04T11:14:24.209Z,10.25
2022-12-04T11:17:46.562Z,9.13
2022-12-04T11:21:17.591Z,7.75
2022-12-04T11:24:42.595Z,8.68
2022-12-04T11:28:05.237Z,8.85
2022-12-04T11:31:29.456Z,8.55
2022-12-04T11:34:54.225Z,7.63
2022-12-04T11:38:18.644Z,7.28
2022-12-04T11:41:41.435Z,6.73
2022-12-04T11:45:23.998Z,6.70
2022-12-04T11:48:46.305Z,6.78
2022-12-04T11:52:29.907Z,6.82
2022-12-04T11:56:30.390Z,6.25
2022-12-04T11:59:55.676Z,6.43
2022-12-04T12:03:31.953Z,6.35
2022-12-04T12:07:15.197Z,6.38
2022-12-04T12:10:56.683Z,6.45
2022-12-04T12:14:28.801Z,6.55
2022-12-04T12:17:59.678Z,5.80
2022-12-04T12:21:39.588Z,5.88
2022-12-04T12:25:06.659Z,5.90
2022-12-04T12:28:43.910Z,5.68
2022-12-04T12:32:20.117Z,5.32
2022-12-04T12:36:04.000Z,5.55
2022-12-04T12:39:49.957Z,5.78
2022-12-04T12:43:32.555Z,4.93
2022-12-04T12:47:00.493Z,5.63
2022-12-04T12:50:44.168Z,5.05
2022-12-04T12:54:48.220Z,4.60
2022-12-04T12:58:32.159Z,4.82
2022-12-04T13:02:29.650Z,4.82
2022-12-04T13:05:55.691Z,4.53
2022-12-04T13:09:20.977Z,4.63
2022-12-04T13:16:25.406Z,4.32
2022-12-04T13:19:55.472Z,4.15
2022-12-04T13:23:36.820Z,3.97
2022-12-04T13:27:39.485Z,4.20
2022-12-04T13:31:33.891Z,4.18
2022-12-04T13:35:27.744Z,3.88
2022-12-04T13:39:11.660Z,3.53
2022-12-04T13:42:34.001Z,3.85
2022-12-04T13:46:00.468Z,3.25
2022-12-04T13:49:35.491Z,3.50
2022-12-04T13:52:58.075Z,3.85
2022-12-04T13:56:31.798Z,4.05
2022-12-04T14:00:26.888Z,3.90
2022-12-04T14:03:55.503Z,3.67
2022-12-04T14:07:26.303Z,3.88
2022-12-04T14:11:07.157Z,3.83
2022-12-04T14:14:58.875Z,3.47
2022-12-04T14:18:29.212Z,3.53
2022-12-04T14:21:51.612Z,3.38
2022-12-04T14:25:14.101Z,3.20
2022-12-04T14:28:42.785Z,3.28
2022-12-04T14:32:26.916Z,3.20
2022-12-04T14:36:05.225Z,2.97
2022-12-04T14:39:49.082Z,3.30
2022-12-04T14:43:20.780Z,3.10
2022-12-04T14:46:47.825Z,3.00
2022-12-04T14:50:22.251Z,2.88
2022-12-04T14:54:03.477Z,3.33
2022-12-04T14:58:24.583Z,3.05
2022-12-04T15:01:49.492Z,3.00
2022-12-04T15:05:18.813Z,3.58
2022-12-04T15:09:30.865Z,2.80
2022-12-04T15:12:54.863Z,2.88
2022-12-04T15:16:22.999Z,2.70
2022-12-04T15:19:45.795Z,3.22
2022-12-04T15:23:13.677Z,2.80
2022-12-04T15:26:37.587Z,2.92
2022-12-04T15:30:02.276Z,3.15
2022-12-04T15:33:29.196Z,2.70
2022-12-04T15:37:00.621Z,2.38
2022-12-04T15:40:25.928Z,2.45
2022-12-04T15:47:25.283Z,2.40
2022-12-04T15:51:02.549Z,2.58
2022-12-04T15:54:26.484Z,2.80
2022-12-04T15:57:59.529Z,2.70
2022-12-04T16:01:22.230Z,2.75
2022-12-04T16:04:45.675Z,2.53
2022-12-04T16:08:32.005Z,2.90
2022-12-04T16:12:19.272Z,3.67
2022-12-04T16:15:46.401Z,3.20
2022-12-04T16:18:49.047Z,2.90
2022-12-04T16:21:51.251Z,2.85
2022-12-04T16:24:54.870Z,2.70
2022-12-04T16:28:00.624Z,2.97
2022-12-04T16:31:02.711Z,2.55
2022-12-04T16:34:04.908Z,2.50
2022-12-04T16:37:17.431Z,2.75
2022-12-04T16:40:19.325Z,2.90
2022-12-04T16:43:21.551Z,2.50
2022-12-04T16:46:25.936Z,2.95
2022-12-04T16:49:27.968Z,2.75
2022-12-04T16:52:30.127Z,2.47
2022-12-04T16:55:38.626Z,2.25
2022-12-04T16:58:40.765Z,2.80
2022-12-04T17:01:48.313Z,2.65
2022-12-04T17:04:55.694Z,2.85
2022-12-04T17:08:00.727Z,3.08
2022-12-04T17:11:02.918Z,2.30
2022-12-04T17:14:07.250Z,2.85
2022-12-04T17:17:09.171Z,2.30
2022-12-04T17:20:16.665Z,3.03
2022-12-04T17:23:18.835Z,2.38
2022-12-04T17:26:21.075Z,2.15
2022-12-04T17:29:23.233Z,2.03
2022-12-04T17:32:25.378Z,2.08
2022-12-04T17:35:27.509Z,2.63
2022-12-04T17:38:48.183Z,3.88
2022-12-04T17:42:10.508Z,3.90
2022-12-04T17:45:32.768Z,3.75
2022-12-04T17:48:56.798Z,4.60
2022-12-04T17:52:22.037Z,3.50
2022-12-04T17:59:06.924Z,3.15
2022-12-04T18:02:29.253Z,2.97
2022-12-04T18:05:51.489Z,2.60
2022-12-04T18:09:16.649Z,2.55
2022-12-04T18:12:38.896Z,2.70
2022-12-04T18:16:09.113Z,2.42
2022-12-04T18:19:31.919Z,2.50
2022-12-04T18:22:54.184Z,2.20
2022-12-04T18:26:22.383Z,2.65
2022-12-04T18:29:44.776Z,2.85
2022-12-04T18:33:07.041Z,2.72
2022-12-04T18:36:31.091Z,2.55
2022-12-04T18:39:53.543Z,2.70
2022-12-04T18:43:16.279Z,2.47
2022-12-04T18:46:39.305Z,2.50
2022-12-04T18:50:01.505Z,2.63
2022-12-04T18:53:26.888Z,2.10
2022-12-04T18:56:49.667Z,2.03
2022-12-04T19:00:12.249Z,4.03
2022-12-04T19:03:37.924Z,2.92
2022-12-04T19:07:09.743Z,2.72
2022-12-04T19:10:32.661Z,2.83
2022-12-04T19:13:54.907Z,2.53
2022-12-04T19:17:17.295Z,2.67
2022-12-04T19:20:41.424Z,2.60
2022-12-04T19:24:04.280Z,2.67
2022-12-04T19:27:27.607Z,2.58
2022-12-04T19:30:49.983Z,2.80
2022-12-04T19:34:12.235Z,3.15
2022-12-04T19:37:39.637Z,2.60
2022-12-04T19:41:10.180Z,2.70
2022-12-04T19:44:49.208Z,3.58
2022-12-04T19:48:11.921Z,2.78
2022-12-04T19:51:37.944Z,2.90
2022-12-04T19:55:00.187Z,2.75
2022-12-04T19:58:26.098Z,3.03
2022-12-04T20:01:48.511Z,2.50
2022-12-04T20:05:10.941Z,2.60
2022-12-04T20:08:34.040Z,2.28
2022-12-04T20:11:57.312Z,2.70
2022-12-04T20:15:19.631Z,2.60
2022-12-04T20:18:42.685Z,2.90
2022-12-04T20:22:04.984Z,2.30
2022-12-04T20:25:27.342Z,2.83
2022-12-04T20:28:49.900Z,2.90
2022-12-04T20:32:12.136Z,2.42
2022-12-04T20:35:38.653Z,2.28
2022-12-04T20:39:01.172Z,3.10
2022-12-04T20:42:26.332Z,2.80
2022-12-04T20:45:51.241Z,2.63
2022-12-04T20:49:21.288Z,2.97
2022-12-04T20:52:44.490Z,3.13
2022-12-04T20:56:07.227Z,2.90
2022-12-04T20:59:29.516Z,3.13
2022-12-04T21:02:51.865Z,3.45
2022-12-04T21:06:19.791Z,3.20
2022-12-04T21:09:42.431Z,3.03
2022-12-04T21:13:22.994Z,3.80
2022-12-04T21:16:45.970Z,3.42
2022-12-04T21:20:10.254Z,3.20
2022-12-04T21:23:32.967Z,2.92
2022-12-04T21:26:56.309Z,3.63
2022-12-04T21:30:18.685Z,3.17
2022-12-04T21:33:42.223Z,2.97
2022-12-04T21:37:04.479Z,3.90
2022-12-04T21:40:26.743Z,3.88
2022-12-04T21:43:48.929Z,3.80
2022-12-04T21:47:11.245Z,3.75
2022-12-04T21:50:33.432Z,3.70
2022-12-04T21:53:57.693Z,3.40
2022-12-04T21:57:23.535Z,4.13
2022-12-04T22:00:49.019Z,4.20
2022-12-04T22:04:11.211Z,4.22
2022-12-04T22:07:33.535Z,4.95
2022-12-04T22:10:55.837Z,4.57
2022-12-04T22:14:18.223Z,5.03
2022-12-04T22:17:41.361Z,4.60
2022-12-04T22:21:09.268Z,4.22
2022-12-04T22:24:31.434Z,5.30
2022-12-04T22:27:53.893Z,5.10
2022-12-04T22:31:18.692Z,4.57
2022-12-04T22:34:40.980Z,4.63
2022-12-04T22:38:03.257Z,5.15
2022-12-04T22:41:26.588Z,3.92
2022-12-04T22:44:49.032Z,4.55
2022-12-04T22:48:11.280Z,5.43
2022-12-04T22:51:33.607Z,4.95
2022-12-04T22:54:55.794Z,5.03
2022-12-04T22:58:17.998Z,4.60
2022-12-04T23:01:40.312Z,5.10
2022-12-04T23:05:02.671Z,4.78
2022-12-04T23:08:24.948Z,5.30
2022-12-04T23:11:51.190Z,4.88
2022-12-04T23:15:13.463Z,4.45
2022-12-04T23:18:36.017Z,4.75
2022-12-04T23:21:58.344Z,4.38
2022-12-04T23:25:21.431Z,5.45
2022-12-04T23:28:44.267Z,4.95
2022-12-04T23:32:06.589Z,4.80
2022-12-04T23:35:30.099Z,5.18
2022-12-04T23:38:52.709Z,5.40
2022-12-04T23:42:14.913Z,5.65
2022-12-04T23:45:38.858Z,5.13
2022-12-04T23:49:01.655Z,5.13
2022-12-04T23:52:23.904Z,5.68
2022-12-04T23:56:15.031Z,5.68
2022-12-04T23:59:37.337Z,5.20
